ウィレムスタッド の空港の天気 - METARとTAF

キュラソー/ハト国際空港 ( TNCC / CUR ) - ウィレムスタッド (キュラソー島)
飛行場実況気象(Metar)
観測時間09/18 19:00 AST (09/18 23:00 UTC)
風向・風速東北東 6m/s
視程10km以上
天気現象
少しの雲 雲底高度 550m
気温29℃
湿度79%
気圧1010hPa
METARTNCC 182300Z 07012KT 9999 FEW018 29/25 Q1010 NOSIG
過去の天気等 Google飛行場航空写真 Wunderground天気予報

過去48時間のMETAR

飛行場予報(TAF)
発表時間: 9/18 13:15 AST (9/18 17:15 UTC)
予報対象時間: 18日14時 AST ~ 19日14時 AST
風向・風速東 6m/s
視程10km以上
全天の4割程度の雲 雲底高度 760m
TAF TNCC 181715Z 1818/1918 09012KT 9999 SCT025